createdAt,value
2019-03-06T00:00:43.375Z,1027.41
2019-03-06T00:01:43.358Z,1027.42
2019-03-06T00:02:43.341Z,1027.42
2019-03-06T00:03:43.327Z,1027.39
2019-03-06T00:04:43.311Z,1027.38
2019-03-06T00:05:43.295Z,1027.34
2019-03-06T00:06:43.280Z,1027.35
2019-03-06T00:07:43.265Z,1027.33
2019-03-06T00:08:43.248Z,1027.28
2019-03-06T00:09:43.234Z,1027.31
2019-03-06T00:10:43.217Z,1027.28
2019-03-06T00:11:43.202Z,1027.34
2019-03-06T00:12:43.186Z,1027.37
2019-03-06T00:13:43.170Z,1027.38
2019-03-06T00:14:43.154Z,1027.44
2019-03-06T00:15:43.138Z,1027.42
2019-03-06T00:16:43.123Z,1027.41
2019-03-06T00:17:43.110Z,1027.46
2019-03-06T00:18:43.091Z,1027.48
2019-03-06T00:19:43.075Z,1027.45
2019-03-06T00:20:43.061Z,1027.45
2019-03-06T00:21:43.046Z,1027.46
2019-03-06T00:22:43.030Z,1027.44
2019-03-06T00:23:43.014Z,1027.4
2019-03-06T00:24:42.999Z,1027.35
2019-03-06T00:25:42.982Z,1027.35
2019-03-06T00:26:42.967Z,1027.32
2019-03-06T00:27:42.952Z,1027.29
2019-03-06T00:28:42.936Z,1027.3
2019-03-06T00:29:42.920Z,1027.27
2019-03-06T00:30:42.904Z,1027.26
2019-03-06T00:31:42.889Z,1027.22
2019-03-06T00:32:42.874Z,1027.22
2019-03-06T00:33:42.858Z,1027.18
2019-03-06T00:34:42.843Z,1027.2
2019-03-06T00:35:42.828Z,1027.15
2019-03-06T00:36:42.811Z,1027.17
2019-03-06T00:37:42.796Z,1027.16
2019-03-06T00:38:42.781Z,1027.19
2019-03-06T00:39:42.766Z,1027.22
2019-03-06T00:40:42.752Z,1027.21
2019-03-06T00:41:42.734Z,1027.23
2019-03-06T00:42:42.719Z,1027.32
2019-03-06T00:43:42.704Z,1027.33
2019-03-06T00:44:42.688Z,1027.39
2019-03-06T00:45:42.673Z,1027.41
2019-03-06T00:46:42.657Z,1027.41
2019-03-06T00:47:42.641Z,1027.47
2019-03-06T00:48:42.626Z,1027.51
2019-03-06T00:49:42.611Z,1027.55
2019-03-06T00:50:42.595Z,1027.56
2019-03-06T00:51:42.579Z,1027.58
2019-03-06T00:52:42.564Z,1027.56
2019-03-06T00:53:42.550Z,1027.6
2019-03-06T00:54:42.534Z,1027.64
2019-03-06T00:55:42.519Z,1027.6
2019-03-06T00:56:42.502Z,1027.62
2019-03-06T00:57:42.487Z,1027.57
2019-03-06T00:58:42.471Z,1027.59
2019-03-06T00:59:42.456Z,1027.61
2019-03-06T01:00:42.441Z,1027.56
2019-03-06T01:01:42.426Z,1027.56
2019-03-06T01:02:42.409Z,1027.52
2019-03-06T01:03:42.394Z,1027.55
2019-03-06T01:04:42.378Z,1027.54
2019-03-06T01:05:42.367Z,1027.58
2019-03-06T01:06:42.347Z,1027.59
2019-03-06T01:07:42.332Z,1027.65
2019-03-06T01:08:42.316Z,1027.64
2019-03-06T01:09:42.303Z,1027.64
2019-03-06T01:10:42.285Z,1027.68
2019-03-06T01:11:42.270Z,1027.63
2019-03-06T01:12:42.255Z,1027.63
2019-03-06T01:13:42.239Z,1027.58
2019-03-06T01:14:42.223Z,1027.61
2019-03-06T01:15:42.208Z,1027.62
2019-03-06T01:16:42.193Z,1027.63
2019-03-06T01:17:42.177Z,1027.64
2019-03-06T01:18:42.166Z,1027.65
2019-03-06T01:19:42.146Z,1027.64
2019-03-06T01:20:42.130Z,1027.66
2019-03-06T01:21:42.113Z,1027.65
2019-03-06T01:22:42.099Z,1027.66
2019-03-06T01:23:42.086Z,1027.66
2019-03-06T01:24:42.068Z,1027.68
2019-03-06T01:25:42.053Z,1027.75
2019-03-06T01:26:42.037Z,1027.74
2019-03-06T01:27:42.022Z,1027.78
2019-03-06T01:28:42.006Z,1027.79
2019-03-06T01:29:41.991Z,1027.78
2019-03-06T01:30:41.975Z,1027.82
2019-03-06T01:31:41.962Z,1027.85
2019-03-06T01:32:41.943Z,1027.89
2019-03-06T01:33:41.930Z,1027.83
2019-03-06T01:34:41.935Z,1027.83
2019-03-06T01:35:41.897Z,1027.83
2019-03-06T01:36:41.882Z,1027.83
2019-03-06T01:37:41.867Z,1027.89
2019-03-06T01:38:41.851Z,1027.84
2019-03-06T01:39:41.836Z,1027.86
2019-03-06T01:40:41.820Z,1027.89
2019-03-06T01:41:41.804Z,1027.86
2019-03-06T01:42:41.788Z,1027.86
2019-03-06T01:43:41.772Z,1027.88
2019-03-06T01:44:41.760Z,1027.9
2019-03-06T01:45:41.743Z,1027.89
2019-03-06T01:46:41.725Z,1027.91
2019-03-06T01:47:41.710Z,1027.88
2019-03-06T01:48:41.694Z,1027.89
2019-03-06T01:49:41.678Z,1027.89
2019-03-06T01:50:41.665Z,1027.89
2019-03-06T01:51:41.647Z,1027.91
2019-03-06T01:52:41.632Z,1027.93
2019-03-06T01:53:41.617Z,1027.99
2019-03-06T01:54:41.600Z,1027.99
2019-03-06T01:55:41.583Z,1027.96
2019-03-06T01:56:41.569Z,1027.96
2019-03-06T01:57:41.552Z,1027.98
2019-03-06T01:58:41.537Z,1028
2019-03-06T01:59:41.521Z,1028
2019-03-06T02:00:41.505Z,1027.99
2019-03-06T02:01:41.489Z,1027.98
2019-03-06T02:02:41.472Z,1027.99
2019-03-06T02:03:41.459Z,1027.94
2019-03-06T02:04:41.442Z,1028
2019-03-06T02:05:41.428Z,1027.99
2019-03-06T02:06:41.411Z,1028.04
2019-03-06T02:07:41.396Z,1028.05
2019-03-06T02:08:41.379Z,1028.08
2019-03-06T02:09:41.363Z,1028.04
2019-03-06T02:10:41.594Z,1028.04
2019-03-06T02:11:41.331Z,1028.01
2019-03-06T02:12:41.316Z,1028.02
2019-03-06T02:13:41.299Z,1028
2019-03-06T02:14:41.285Z,1028.01
2019-03-06T02:15:41.268Z,1028.04
2019-03-06T02:16:41.252Z,1027.99
2019-03-06T02:17:41.235Z,1028
2019-03-06T02:18:41.220Z,1028.04
2019-03-06T02:19:41.205Z,1028.04
2019-03-06T02:20:41.189Z,1028.01
2019-03-06T02:21:41.187Z,1028.03
2019-03-06T02:22:41.157Z,1028.04
2019-03-06T02:23:41.142Z,1028.01
2019-03-06T02:24:41.131Z,1028.02
2019-03-06T02:25:41.110Z,1028
2019-03-06T02:26:41.092Z,1028.05
2019-03-06T02:27:41.077Z,1028.04
2019-03-06T02:28:41.062Z,1028.02
2019-03-06T02:29:41.047Z,1028.07
2019-03-06T02:30:41.033Z,1028.05
2019-03-06T02:31:41.014Z,1028.03
2019-03-06T02:32:41.001Z,1028.07
2019-03-06T02:33:40.983Z,1028.12
2019-03-06T02:34:40.967Z,1028.1
2019-03-06T02:35:40.952Z,1028.11
2019-03-06T02:36:40.950Z,1028.1
2019-03-06T02:37:40.919Z,1028.16
2019-03-06T02:38:40.909Z,1028.15
2019-03-06T02:39:40.890Z,1028.14
2019-03-06T02:40:40.872Z,1028.17
2019-03-06T02:41:40.855Z,1028.21
2019-03-06T02:42:40.839Z,1028.22
2019-03-06T02:43:40.831Z,1028.18
2019-03-06T02:44:40.808Z,1028.17
2019-03-06T02:45:40.796Z,1028.1
2019-03-06T02:46:40.775Z,1028.03
2019-03-06T02:47:40.760Z,1027.96
2019-03-06T02:48:40.745Z,1027.93
2019-03-06T02:49:40.730Z,1027.91
2019-03-06T02:50:40.713Z,1027.89
2019-03-06T02:51:40.698Z,1027.87
2019-03-06T02:52:40.680Z,1027.85
2019-03-06T02:53:40.665Z,1027.86
2019-03-06T02:54:40.649Z,1027.9
2019-03-06T02:55:40.632Z,1027.86
2019-03-06T02:56:40.617Z,1027.88
2019-03-06T02:57:40.602Z,1027.91
2019-03-06T02:58:40.585Z,1027.93
2019-03-06T02:59:40.570Z,1027.91
2019-03-06T03:00:40.554Z,1027.95
2019-03-06T03:01:40.549Z,1027.97
2019-03-06T03:02:40.523Z,1028.01
2019-03-06T03:03:40.506Z,1028.05
2019-03-06T03:04:40.491Z,1028.06
2019-03-06T03:05:40.478Z,1028.09
2019-03-06T03:06:40.459Z,1028.1
2019-03-06T03:07:40.443Z,1028.09
2019-03-06T03:08:40.428Z,1028.1
2019-03-06T03:09:40.412Z,1028.1
2019-03-06T03:10:40.395Z,1028.12
2019-03-06T03:11:40.380Z,1028.11
2019-03-06T03:12:40.365Z,1028.17
2019-03-06T03:13:40.349Z,1028.21
2019-03-06T03:14:40.332Z,1028.19
2019-03-06T03:15:40.317Z,1028.22
2019-03-06T03:16:40.303Z,1028.2
2019-03-06T03:17:40.285Z,1028.2
2019-03-06T03:18:40.271Z,1028.21
2019-03-06T03:19:40.254Z,1028.2
2019-03-06T03:20:40.238Z,1028.23
2019-03-06T03:21:40.224Z,1028.23
2019-03-06T03:22:40.205Z,1028.26
2019-03-06T03:23:40.189Z,1028.25
2019-03-06T03:24:40.174Z,1028.24
2019-03-06T03:25:40.170Z,1028.25
2019-03-06T03:26:40.145Z,1028.26
2019-03-06T03:27:40.132Z,1028.25
2019-03-06T03:28:40.114Z,1028.28
2019-03-06T03:29:40.100Z,1028.28
2019-03-06T03:30:40.081Z,1028.26
2019-03-06T03:31:40.108Z,1028.27
2019-03-06T03:32:40.048Z,1028.25
2019-03-06T03:33:40.040Z,1028.32
2019-03-06T03:34:40.022Z,1028.34
2019-03-06T03:35:39.998Z,1028.37
2019-03-06T03:36:39.985Z,1028.35
2019-03-06T03:37:39.967Z,1028.32
2019-03-06T03:38:39.953Z,1028.34
2019-03-06T03:39:39.937Z,1028.35
2019-03-06T03:40:39.925Z,1028.42
2019-03-06T03:41:39.905Z,1028.44
2019-03-06T03:42:39.888Z,1028.45
2019-03-06T03:43:39.871Z,1028.47
2019-03-06T03:44:39.868Z,1028.43
2019-03-06T03:45:39.840Z,1028.44
2019-03-06T03:46:39.826Z,1028.43
2019-03-06T03:47:39.809Z,1028.43
2019-03-06T03:48:39.797Z,1028.45
2019-03-06T03:49:39.782Z,1028.47
2019-03-06T03:50:39.760Z,1028.42
2019-03-06T03:51:39.745Z,1028.46
2019-03-06T03:52:39.746Z,1028.45
2019-03-06T03:53:39.711Z,1028.47
2019-03-06T03:54:39.695Z,1028.49
2019-03-06T03:55:39.680Z,1028.44
2019-03-06T03:56:39.664Z,1028.46
2019-03-06T03:57:39.650Z,1028.45
2019-03-06T03:58:39.632Z,1028.42
2019-03-06T03:59:39.618Z,1028.42
2019-03-06T04:00:39.600Z,1028.42
2019-03-06T04:01:39.584Z,1028.41
2019-03-06T04:02:39.577Z,1028.4
2019-03-06T04:03:39.555Z,1028.4
2019-03-06T04:04:39.537Z,1028.38
2019-03-06T04:05:39.520Z,1028.37
2019-03-06T04:06:39.510Z,1028.36
2019-03-06T04:07:39.488Z,1028.38
2019-03-06T04:08:39.473Z,1028.36
2019-03-06T04:09:39.455Z,1028.39
2019-03-06T04:10:39.440Z,1028.38
2019-03-06T04:11:39.429Z,1028.34
2019-03-06T04:12:39.407Z,1028.3
2019-03-06T04:13:39.391Z,1028.3
2019-03-06T04:14:39.376Z,1028.27
2019-03-06T04:15:39.363Z,1028.25
2019-03-06T04:16:39.344Z,1028.24
2019-03-06T04:17:39.328Z,1028.21
2019-03-06T04:18:39.314Z,1028.22
2019-03-06T04:19:39.296Z,1028.24
2019-03-06T04:20:39.279Z,1028.22
2019-03-06T04:21:39.271Z,1028.23
2019-03-06T04:22:39.248Z,1028.24
2019-03-06T04:23:39.237Z,1028.23
2019-03-06T04:24:39.216Z,1028.28
2019-03-06T04:25:39.207Z,1028.23
2019-03-06T04:26:39.185Z,1028.25
2019-03-06T04:27:39.169Z,1028.31
2019-03-06T04:28:39.152Z,1028.32
2019-03-06T04:29:39.137Z,1028.34
2019-03-06T04:30:39.120Z,1028.3
2019-03-06T04:31:39.115Z,1028.37
2019-03-06T04:32:39.105Z,1028.41
2019-03-06T04:33:39.074Z,1028.34
2019-03-06T04:34:39.057Z,1028.37
2019-03-06T04:35:39.041Z,1028.4
2019-03-06T04:36:39.026Z,1028.33
2019-03-06T04:37:39.008Z,1028.34
2019-03-06T04:38:38.994Z,1028.33
2019-03-06T04:39:38.976Z,1028.36
2019-03-06T04:40:38.961Z,1028.36
2019-03-06T04:41:38.944Z,1028.35
2019-03-06T04:42:38.929Z,1028.37
2019-03-06T04:43:38.913Z,1028.4
2019-03-06T04:44:38.897Z,1028.44
2019-03-06T04:45:38.881Z,1028.43
2019-03-06T04:46:38.864Z,1028.41
2019-03-06T04:47:38.849Z,1028.43
2019-03-06T04:48:38.834Z,1028.46
2019-03-06T04:49:38.817Z,1028.45
2019-03-06T04:50:38.803Z,1028.47
2019-03-06T04:51:38.787Z,1028.5
2019-03-06T04:52:38.771Z,1028.5
2019-03-06T04:53:38.756Z,1028.51
2019-03-06T04:54:38.738Z,1028.56
2019-03-06T04:55:38.725Z,1028.56
2019-03-06T04:56:38.705Z,1028.52
2019-03-06T04:57:38.690Z,1028.51
2019-03-06T04:58:38.675Z,1028.5
2019-03-06T04:59:38.658Z,1028.48
2019-03-06T05:00:38.646Z,1028.51
2019-03-06T05:01:38.627Z,1028.48
2019-03-06T05:02:38.611Z,1028.49
2019-03-06T05:03:38.593Z,1028.47
2019-03-06T05:04:38.579Z,1028.51
2019-03-06T05:05:38.567Z,1028.52
2019-03-06T05:06:38.548Z,1028.48
2019-03-06T05:07:38.530Z,1028.52
2019-03-06T05:08:38.516Z,1028.49
2019-03-06T05:09:38.499Z,1028.51
2019-03-06T05:10:38.482Z,1028.52
2019-03-06T05:11:38.466Z,1028.48
2019-03-06T05:12:38.450Z,1028.44
2019-03-06T05:13:38.439Z,1028.45
2019-03-06T05:14:38.418Z,1028.39
2019-03-06T05:15:38.402Z,1028.4
2019-03-06T05:16:38.387Z,1028.41
2019-03-06T05:17:38.372Z,1028.44
2019-03-06T05:18:40.280Z,1028.43
2019-03-06T05:19:38.339Z,1028.43
2019-03-06T05:20:38.323Z,1028.44
2019-03-06T05:21:38.306Z,1028.42
2019-03-06T05:22:38.291Z,1028.44
2019-03-06T05:23:38.275Z,1028.43
2019-03-06T05:24:38.259Z,1028.45
2019-03-06T05:25:38.243Z,1028.46
2019-03-06T05:26:38.227Z,1028.46
2019-03-06T05:27:38.211Z,1028.51
2019-03-06T05:28:38.195Z,1028.52
2019-03-06T05:29:38.179Z,1028.49
2019-03-06T05:30:38.163Z,1028.48
2019-03-06T05:31:38.148Z,1028.51
2019-03-06T05:32:38.130Z,1028.49
2019-03-06T05:33:38.115Z,1028.52
2019-03-06T05:34:38.098Z,1028.5
2019-03-06T05:35:38.085Z,1028.5
2019-03-06T05:36:38.068Z,1028.48
2019-03-06T05:37:38.053Z,1028.49
2019-03-06T05:38:38.039Z,1028.51
2019-03-06T05:39:38.021Z,1028.53
2019-03-06T05:40:38.003Z,1028.5
2019-03-06T05:41:37.997Z,1028.55
2019-03-06T05:42:37.971Z,1028.52
2019-03-06T05:43:37.954Z,1028.52
2019-03-06T05:44:37.940Z,1028.51
2019-03-06T05:45:37.923Z,1028.46
2019-03-06T05:46:37.920Z,1028.51
2019-03-06T05:47:37.891Z,1028.5
2019-03-06T05:48:37.875Z,1028.53
2019-03-06T05:49:37.861Z,1028.52
2019-03-06T05:50:37.845Z,1028.5
2019-03-06T05:51:37.828Z,1028.46
2019-03-06T05:52:37.813Z,1028.51
2019-03-06T05:53:37.797Z,1028.46
2019-03-06T05:54:37.778Z,1028.44
2019-03-06T05:55:37.766Z,1028.44
2019-03-06T05:56:37.747Z,1028.41
2019-03-06T05:57:37.731Z,1028.35
2019-03-06T05:58:37.718Z,1028.32
2019-03-06T05:59:37.699Z,1028.31
2019-03-06T06:00:37.682Z,1028.28
2019-03-06T06:01:37.674Z,1028.22
2019-03-06T06:02:37.650Z,1028.19
2019-03-06T06:03:37.635Z,1028.17
2019-03-06T06:04:37.620Z,1028.12
2019-03-06T06:05:37.603Z,1028.1
2019-03-06T06:06:37.593Z,1028.07
2019-03-06T06:07:37.572Z,1028.04
2019-03-06T06:08:37.557Z,1028
2019-03-06T06:09:37.541Z,1027.94
2019-03-06T06:10:37.526Z,1027.88
2019-03-06T06:11:37.509Z,1027.81
2019-03-06T06:12:37.493Z,1027.74
2019-03-06T06:13:37.478Z,1027.67
2019-03-06T06:14:37.462Z,1027.57
2019-03-06T06:15:37.446Z,1027.47
2019-03-06T06:16:37.431Z,1027.37
2019-03-06T06:17:37.416Z,1027.29
2019-03-06T06:18:37.401Z,1027.24
2019-03-06T06:19:37.385Z,1027.08
2019-03-06T06:20:37.370Z,1026.98
2019-03-06T06:21:37.355Z,1026.87
2019-03-06T06:22:37.341Z,1026.78
2019-03-06T06:23:37.326Z,1026.72
2019-03-06T06:24:37.311Z,1026.69
2019-03-06T06:25:37.297Z,1026.65
2019-03-06T06:26:37.284Z,1026.63
2019-03-06T06:27:37.267Z,1026.56
2019-03-06T06:28:37.253Z,1026.51
2019-03-06T06:29:37.241Z,1026.48
2019-03-06T06:30:37.225Z,1026.45
2019-03-06T06:31:37.210Z,1026.44
2019-03-06T06:32:37.195Z,1026.41
2019-03-06T06:33:37.183Z,1026.38
2019-03-06T06:34:37.167Z,1026.4
2019-03-06T06:35:37.153Z,1026.38
2019-03-06T06:36:37.139Z,1026.38
2019-03-06T06:37:37.126Z,1026.4
2019-03-06T06:38:37.549Z,1026.41
2019-03-06T06:39:37.098Z,1026.4
2019-03-06T06:40:37.083Z,1026.4
2019-03-06T06:41:37.070Z,1026.38
2019-03-06T06:42:37.058Z,1026.44
2019-03-06T06:43:37.042Z,1026.46
2019-03-06T06:44:37.030Z,1026.41
2019-03-06T06:45:37.021Z,1026.43
2019-03-06T06:46:37.002Z,1026.34
2019-03-06T06:47:36.987Z,1026.22
2019-03-06T06:48:36.976Z,1026.08
2019-03-06T06:49:36.959Z,1025.85
2019-03-06T06:50:36.947Z,1025.64
2019-03-06T06:51:36.933Z,1025.45
2019-03-06T06:52:36.924Z,1025.43
2019-03-06T06:53:36.905Z,1025.3
2019-03-06T06:54:36.892Z,1025.26
2019-03-06T06:55:36.881Z,1025.1
2019-03-06T06:56:36.867Z,1024.93
2019-03-06T06:57:36.852Z,1024.81
2019-03-06T06:58:36.841Z,1024.66
2019-03-06T06:59:36.829Z,1024.55
2019-03-06T07:00:36.815Z,1024.41
2019-03-06T07:01:36.803Z,1024.28
2019-03-06T07:02:36.791Z,1024.17
2019-03-06T07:03:36.780Z,1024.12
2019-03-06T07:04:36.768Z,1024.08
2019-03-06T07:05:36.755Z,1023.95
2019-03-06T07:06:36.744Z,1023.83
2019-03-06T07:07:36.732Z,1023.68
2019-03-06T07:08:36.721Z,1023.51
2019-03-06T07:09:36.709Z,1023.37
2019-03-06T07:10:36.699Z,1023.13
2019-03-06T07:11:36.691Z,1022.94
2019-03-06T07:12:36.677Z,1022.85
2019-03-06T07:13:36.665Z,1022.69
2019-03-06T07:14:36.657Z,1022.59
2019-03-06T07:15:36.645Z,1022.39
2019-03-06T07:16:36.635Z,1022.3
2019-03-06T07:17:36.625Z,1022.2
2019-03-06T07:18:36.614Z,1022.12
2019-03-06T07:19:36.605Z,1022.11
2019-03-06T07:20:36.595Z,1022.07
2019-03-06T07:21:36.586Z,1022.11
2019-03-06T07:22:36.575Z,1022.11
2019-03-06T07:23:36.567Z,1022.05
2019-03-06T07:24:36.557Z,1022.05
2019-03-06T07:25:36.553Z,1021.94
2019-03-06T07:26:36.541Z,1021.82
2019-03-06T07:27:36.531Z,1021.74
2019-03-06T07:28:36.521Z,1021.58
2019-03-06T07:29:36.511Z,1021.6
2019-03-06T07:30:36.502Z,1021.64
2019-03-06T07:31:36.494Z,1021.58
2019-03-06T07:32:36.487Z,1021.68
2019-03-06T07:33:36.476Z,1021.69
2019-03-06T07:34:36.480Z,1021.7
2019-03-06T07:35:36.464Z,1021.69
2019-03-06T07:36:36.459Z,1021.73
2019-03-06T07:37:36.441Z,1021.77
2019-03-06T07:38:36.444Z,1021.81
2019-03-06T07:39:36.425Z,1021.75
2019-03-06T07:40:36.414Z,1021.82
2019-03-06T07:41:36.407Z,1021.78
2019-03-06T07:42:36.399Z,1021.75
2019-03-06T07:43:36.390Z,1021.77
2019-03-06T07:44:36.381Z,1021.7
2019-03-06T07:45:36.374Z,1021.67
2019-03-06T07:46:36.366Z,1021.58
2019-03-06T07:47:36.357Z,1021.52
2019-03-06T07:48:36.348Z,1021.5
2019-03-06T07:49:44.612Z,1021.45
2019-03-06T07:50:36.337Z,1021.37
2019-03-06T07:51:36.323Z,1021.33
2019-03-06T07:52:36.316Z,1021.32
2019-03-06T07:53:36.308Z,1021.21
2019-03-06T07:54:36.301Z,1021.2
2019-03-06T07:55:36.291Z,1021.17
2019-03-06T07:56:36.284Z,1021.13
2019-03-06T07:57:36.275Z,1021.11
2019-03-06T07:58:36.271Z,1021.09
2019-03-06T07:59:36.269Z,1021.07
2019-03-06T08:00:36.253Z,1021.05
2019-03-06T08:01:36.246Z,1021.28
2019-03-06T08:02:36.238Z,1021.56
2019-03-06T08:03:36.229Z,1021.88
2019-03-06T08:04:36.223Z,1022.21
2019-03-06T08:05:36.214Z,1022.48
2019-03-06T08:06:36.205Z,1022.67
2019-03-06T08:07:36.207Z,1022.89
2019-03-06T08:08:36.190Z,1023
2019-03-06T08:09:36.181Z,1023.13
2019-03-06T08:10:36.175Z,1023.29
2019-03-06T08:11:36.164Z,1023.37
2019-03-06T08:12:36.157Z,1023.55
2019-03-06T08:13:36.146Z,1023.6
2019-03-06T08:14:36.138Z,1023.72
2019-03-06T08:15:36.130Z,1023.86
2019-03-06T08:16:36.122Z,1023.94
2019-03-06T08:17:36.110Z,1024.09
2019-03-06T08:18:36.101Z,1024.15
2019-03-06T08:19:36.092Z,1024.18
2019-03-06T08:20:36.082Z,1024.28
2019-03-06T08:21:36.074Z,1024.28
2019-03-06T08:22:36.063Z,1024.28
2019-03-06T08:23:36.054Z,1024.29
2019-03-06T08:24:36.043Z,1024.35
2019-03-06T08:25:36.033Z,1024.38
2019-03-06T08:26:36.023Z,1024.39
2019-03-06T08:27:36.014Z,1024.37
2019-03-06T08:28:36.003Z,1024.44
2019-03-06T08:29:35.992Z,1024.54
2019-03-06T08:30:35.983Z,1024.58
2019-03-06T08:31:35.971Z,1024.56
2019-03-06T08:32:35.962Z,1024.59
2019-03-06T08:33:35.952Z,1024.58
2019-03-06T08:34:35.942Z,1024.53
2019-03-06T08:35:35.930Z,1024.58
2019-03-06T08:36:35.922Z,1024.54
2019-03-06T08:37:35.911Z,1024.54
2019-03-06T08:38:35.899Z,1024.51
2019-03-06T08:39:35.887Z,1024.54
2019-03-06T08:40:35.878Z,1024.53
2019-03-06T08:41:35.867Z,1024.49
2019-03-06T08:42:35.855Z,1024.5
2019-03-06T08:43:35.845Z,1024.45
2019-03-06T08:44:35.835Z,1024.47
2019-03-06T08:45:35.825Z,1024.48
2019-03-06T08:46:35.813Z,1024.55
2019-03-06T08:47:35.801Z,1024.49
2019-03-06T08:48:35.791Z,1024.54
2019-03-06T08:49:35.781Z,1024.52
2019-03-06T08:50:35.769Z,1024.48
2019-03-06T08:51:35.760Z,1024.46
2019-03-06T08:52:35.747Z,1024.48
2019-03-06T08:53:35.736Z,1024.44
2019-03-06T08:54:35.727Z,1024.39
2019-03-06T08:55:35.715Z,1024.32
2019-03-06T08:56:35.704Z,1024.3
2019-03-06T08:57:35.693Z,1024.23
2019-03-06T08:58:35.683Z,1024.2
2019-03-06T08:59:35.672Z,1024.11
2019-03-06T09:00:35.661Z,1024.1
2019-03-06T09:01:35.650Z,1024.03
2019-03-06T09:02:35.639Z,1024.01
2019-03-06T09:03:35.628Z,1023.97
2019-03-06T09:04:35.618Z,1023.92
2019-03-06T09:05:35.606Z,1023.9
2019-03-06T09:06:35.597Z,1023.85
2019-03-06T09:07:35.585Z,1023.81
2019-03-06T09:08:35.574Z,1023.77
2019-03-06T09:09:35.598Z,1023.71
2019-03-06T09:10:35.554Z,1023.7
2019-03-06T09:11:35.543Z,1023.68
2019-03-06T09:12:35.532Z,1023.62
2019-03-06T09:13:35.521Z,1023.67
2019-03-06T09:14:35.512Z,1023.61
2019-03-06T09:15:35.502Z,1023.53
2019-03-06T09:16:35.490Z,1023.46
2019-03-06T09:17:35.480Z,1023.45
2019-03-06T09:18:35.470Z,1023.38
2019-03-06T09:19:35.459Z,1023.38
2019-03-06T09:20:39.065Z,1023.37
2019-03-06T09:21:35.439Z,1023.35
2019-03-06T09:22:35.429Z,1023.4
2019-03-06T09:23:35.418Z,1023.33
2019-03-06T09:24:35.408Z,1023.32
2019-03-06T09:25:35.399Z,1023.31
2019-03-06T09:26:35.387Z,1023.23
2019-03-06T09:27:35.378Z,1023.19
2019-03-06T09:28:35.368Z,1023.18
2019-03-06T09:29:35.359Z,1023.1
2019-03-06T09:30:35.348Z,1023.02
2019-03-06T09:31:35.341Z,1022.92
2019-03-06T09:32:35.328Z,1022.74
2019-03-06T09:33:35.320Z,1022.68
2019-03-06T09:34:35.310Z,1022.68
2019-03-06T09:35:35.300Z,1022.61
2019-03-06T09:36:35.291Z,1022.59
2019-03-06T09:37:35.280Z,1022.49
2019-03-06T09:38:35.271Z,1022.41
2019-03-06T09:39:35.263Z,1022.37
2019-03-06T09:40:35.253Z,1022.31
2019-03-06T09:41:35.243Z,1022.25
2019-03-06T09:42:35.233Z,1022.23
2019-03-06T09:43:35.224Z,1022.21
2019-03-06T09:44:35.220Z,1022.11
2019-03-06T09:45:35.208Z,1022.09
2019-03-06T09:46:35.195Z,1022.08
2019-03-06T09:47:35.187Z,1021.99
2019-03-06T09:48:35.178Z,1022.01
2019-03-06T09:49:35.169Z,1021.94
2019-03-06T09:50:35.159Z,1021.89
2019-03-06T09:51:35.150Z,1021.86
2019-03-06T09:52:35.140Z,1021.84
2019-03-06T09:53:35.131Z,1021.81
2019-03-06T09:54:35.123Z,1021.77
2019-03-06T09:55:35.113Z,1021.75
2019-03-06T09:56:35.104Z,1021.75
2019-03-06T09:57:35.096Z,1021.66
2019-03-06T09:58:35.087Z,1021.65
2019-03-06T09:59:35.077Z,1021.6
2019-03-06T10:00:35.069Z,1021.56
2019-03-06T10:01:35.060Z,1021.54
2019-03-06T10:02:35.053Z,1021.58
2019-03-06T10:03:35.046Z,1021.54
2019-03-06T10:04:35.034Z,1021.56
2019-03-06T10:05:35.025Z,1021.54
2019-03-06T10:06:35.016Z,1021.55
2019-03-06T10:07:35.008Z,1021.52
2019-03-06T10:08:35.000Z,1021.47
2019-03-06T10:09:34.992Z,1021.45
2019-03-06T10:10:34.982Z,1021.46
2019-03-06T10:11:34.973Z,1021.44
2019-03-06T10:12:34.965Z,1021.42
2019-03-06T10:13:37.192Z,1021.39
2019-03-06T10:14:34.948Z,1021.36
2019-03-06T10:15:34.944Z,1021.34
2019-03-06T10:16:34.931Z,1021.38
2019-03-06T10:17:34.922Z,1021.37
2019-03-06T10:18:34.914Z,1021.34
2019-03-06T10:19:34.905Z,1021.37
2019-03-06T10:20:34.900Z,1021.38
2019-03-06T10:21:34.888Z,1021.39
2019-03-06T10:22:34.899Z,1021.38
2019-03-06T10:23:34.884Z,1021.4
2019-03-06T10:24:34.866Z,1021.39
2019-03-06T10:25:34.856Z,1021.45
2019-03-06T10:26:34.847Z,1021.48
2019-03-06T10:27:34.842Z,1021.55
2019-03-06T10:28:36.572Z,1021.58
2019-03-06T10:29:34.822Z,1021.52
2019-03-06T10:30:34.813Z,1021.56
2019-03-06T10:31:34.809Z,1021.5
2019-03-06T10:32:34.796Z,1021.45
2019-03-06T10:33:34.788Z,1021.56
2019-03-06T10:34:34.780Z,1021.49
2019-03-06T10:35:34.774Z,1021.51
2019-03-06T10:36:34.763Z,1021.57
2019-03-06T10:37:34.756Z,1021.51
2019-03-06T10:38:34.748Z,1021.53
2019-03-06T10:39:34.737Z,1021.53
2019-03-06T10:40:34.729Z,1021.51
2019-03-06T10:41:34.721Z,1021.5
2019-03-06T10:42:34.712Z,1021.35
2019-03-06T10:43:34.703Z,1021.37
2019-03-06T10:44:34.697Z,1021.36
2019-03-06T10:45:39.045Z,1021.35
2019-03-06T10:46:34.678Z,1021.37
2019-03-06T10:47:34.669Z,1021.34
2019-03-06T10:48:34.660Z,1021.33
2019-03-06T10:49:34.652Z,1021.37
2019-03-06T10:50:34.644Z,1021.43
2019-03-06T10:51:34.635Z,1021.44
2019-03-06T10:52:34.626Z,1021.43
2019-03-06T10:53:41.214Z,1021.4
2019-03-06T10:54:35.473Z,1021.36
2019-03-06T10:55:34.603Z,1021.38
2019-03-06T10:56:34.592Z,1021.39
2019-03-06T10:57:34.584Z,1021.39
2019-03-06T10:58:34.574Z,1021.39
2019-03-06T10:59:34.566Z,1021.34
2019-03-06T11:00:34.557Z,1021.3
2019-03-06T11:01:34.549Z,1021.29
2019-03-06T11:02:34.544Z,1021.35
2019-03-06T11:03:34.531Z,1021.24
2019-03-06T11:04:34.522Z,1021.19
2019-03-06T11:05:34.515Z,1021.2
2019-03-06T11:06:34.518Z,1021.06
2019-03-06T11:07:34.496Z,1021.06
2019-03-06T11:08:34.488Z,1020.91
2019-03-06T11:09:34.479Z,1020.88
2019-03-06T11:10:34.475Z,1020.87
2019-03-06T11:11:34.464Z,1020.83
2019-03-06T11:12:34.453Z,1020.79
2019-03-06T11:13:34.445Z,1020.57
2019-03-06T11:14:34.437Z,1020.63
2019-03-06T11:15:34.428Z,1020.51
2019-03-06T11:16:36.756Z,1020.48
2019-03-06T11:17:34.411Z,1020.42
2019-03-06T11:18:34.403Z,1020.32
2019-03-06T11:19:34.398Z,1020.32
2019-03-06T11:20:34.386Z,1020.29
2019-03-06T11:21:34.378Z,1020.18
2019-03-06T11:22:34.369Z,1020.14
2019-03-06T11:23:34.361Z,1020.05
2019-03-06T11:24:34.353Z,1019.96
2019-03-06T11:25:34.345Z,1019.93
2019-03-06T11:26:34.337Z,1019.89
2019-03-06T11:27:34.328Z,1019.84
2019-03-06T11:28:34.320Z,1019.71
2019-03-06T11:29:34.313Z,1019.66
2019-03-06T11:30:34.304Z,1019.61
2019-03-06T11:31:34.296Z,1019.57
2019-03-06T11:32:34.290Z,1019.44
2019-03-06T11:33:34.321Z,1019.39
2019-03-06T11:34:34.273Z,1019.23
2019-03-06T11:35:34.274Z,1019.24
2019-03-06T11:36:34.257Z,1019.15
2019-03-06T11:37:34.250Z,1019.08
2019-03-06T11:38:34.244Z,1019.06
2019-03-06T11:39:34.237Z,1019.02
2019-03-06T11:40:34.228Z,1018.92
2019-03-06T11:41:34.220Z,1018.81
2019-03-06T11:42:34.212Z,1018.78
2019-03-06T11:43:34.206Z,1018.74
2019-03-06T11:44:34.199Z,1018.76
2019-03-06T11:45:34.191Z,1018.7
2019-03-06T11:46:34.185Z,1018.73
2019-03-06T11:47:34.178Z,1018.74
2019-03-06T11:48:34.171Z,1018.73
2019-03-06T11:49:34.163Z,1018.79
2019-03-06T11:50:40.541Z,1018.87
2019-03-06T11:51:34.150Z,1018.77
2019-03-06T11:52:34.640Z,1018.83
2019-03-06T11:53:34.136Z,1018.76
2019-03-06T11:54:34.129Z,1018.83
2019-03-06T11:55:34.126Z,1018.77
2019-03-06T11:56:34.117Z,1018.82
2019-03-06T11:57:34.109Z,1018.78
2019-03-06T11:58:34.102Z,1018.8
2019-03-06T11:59:34.095Z,1018.84
2019-03-06T12:00:34.089Z,1018.85
2019-03-06T12:01:34.082Z,1018.85
2019-03-06T12:02:34.078Z,1018.83
2019-03-06T12:03:34.068Z,1018.84
2019-03-06T12:04:34.062Z,1018.77
2019-03-06T12:05:34.055Z,1018.77
2019-03-06T12:06:34.050Z,1018.74
2019-03-06T12:07:34.042Z,1018.68
2019-03-06T12:08:34.034Z,1018.73